createdAt,value
2018-12-26T00:02:08.398Z,5.80
2018-12-26T00:04:44.631Z,6.20
2018-12-26T00:07:16.370Z,5.20
2018-12-26T00:09:48.977Z,6.63
2018-12-26T00:12:21.930Z,6.07
2018-12-26T00:14:52.446Z,5.93
2018-12-26T00:17:26.905Z,5.97
2018-12-26T00:19:58.492Z,6.20
2018-12-26T00:22:31.607Z,6.10
2018-12-26T00:25:06.988Z,5.73
2018-12-26T00:27:38.064Z,5.70
2018-12-26T00:30:08.650Z,6.50
2018-12-26T00:32:41.922Z,6.10
2018-12-26T00:35:16.121Z,6.53
2018-12-26T00:37:49.000Z,6.43
2018-12-26T00:40:21.586Z,7.23
2018-12-26T00:42:54.558Z,7.40
2018-12-26T00:45:45.261Z,6.50
2018-12-26T00:48:28.813Z,7.17
2018-12-26T00:50:59.273Z,6.90
2018-12-26T00:53:29.877Z,6.57
2018-12-26T00:56:10.382Z,6.70
2018-12-26T00:58:42.724Z,6.73
2018-12-26T01:01:22.930Z,7.13
2018-12-26T01:03:54.870Z,6.90
2018-12-26T01:06:29.820Z,6.40
2018-12-26T01:09:02.702Z,7.50
2018-12-26T01:11:34.623Z,7.33
2018-12-26T01:14:21.021Z,7.00
2018-12-26T01:16:55.320Z,6.57
2018-12-26T01:19:28.969Z,6.63
2018-12-26T01:22:02.617Z,6.87
2018-12-26T01:24:35.914Z,6.30
2018-12-26T01:27:08.485Z,6.90
2018-12-26T01:29:38.937Z,7.00
2018-12-26T01:32:09.594Z,6.60
2018-12-26T01:34:42.286Z,7.17
2018-12-26T01:37:16.332Z,5.93
2018-12-26T01:39:53.113Z,7.43
2018-12-26T01:42:26.104Z,6.63
2018-12-26T01:45:09.491Z,7.40
2018-12-26T01:47:45.385Z,7.20
2018-12-26T01:50:36.653Z,7.17
2018-12-26T01:53:10.246Z,7.27
2018-12-26T01:55:48.179Z,7.17
2018-12-26T01:58:22.209Z,7.20
2018-12-26T02:00:54.140Z,7.93
2018-12-26T02:03:29.335Z,8.17
2018-12-26T02:06:01.145Z,7.40
2018-12-26T02:08:34.726Z,7.17
2018-12-26T02:11:20.495Z,7.47
2018-12-26T02:13:53.613Z,7.80
2018-12-26T02:16:27.978Z,6.87
2018-12-26T02:19:18.770Z,7.60
2018-12-26T02:22:07.115Z,7.43
2018-12-26T02:24:39.225Z,6.80
2018-12-26T02:27:09.952Z,7.27
2018-12-26T02:29:47.273Z,6.87
2018-12-26T02:32:20.172Z,6.90
2018-12-26T02:35:11.038Z,6.87
2018-12-26T02:37:42.480Z,7.07
2018-12-26T02:40:16.928Z,6.83
2018-12-26T02:42:50.467Z,6.30
2018-12-26T02:45:23.150Z,6.97
2018-12-26T02:48:09.225Z,6.30
2018-12-26T02:50:43.268Z,6.70
2018-12-26T02:53:15.978Z,7.23
2018-12-26T02:55:51.397Z,7.57
2018-12-26T02:58:24.094Z,7.07
2018-12-26T03:01:02.900Z,7.70
2018-12-26T03:03:33.348Z,7.47
2018-12-26T03:06:03.992Z,7.67
2018-12-26T03:08:46.235Z,8.10
2018-12-26T03:11:18.327Z,7.50
2018-12-26T03:13:51.288Z,8.50
2018-12-26T03:16:28.121Z,8.40
2018-12-26T03:19:03.657Z,8.80
2018-12-26T03:21:37.389Z,8.80
2018-12-26T03:24:09.356Z,7.43
2018-12-26T03:26:58.701Z,7.80
2018-12-26T03:29:37.664Z,8.30
2018-12-26T03:32:09.373Z,9.00
2018-12-26T03:34:43.871Z,8.40
2018-12-26T03:37:28.411Z,9.00
2018-12-26T03:40:01.694Z,8.67
2018-12-26T03:42:34.730Z,8.47
2018-12-26T03:45:15.012Z,8.50
2018-12-26T03:47:47.424Z,7.77
2018-12-26T03:50:18.481Z,8.53
2018-12-26T03:52:51.031Z,8.23
2018-12-26T03:55:23.560Z,8.43
2018-12-26T03:58:00.383Z,8.10
2018-12-26T04:00:33.510Z,7.87
2018-12-26T04:03:04.256Z,8.60
2018-12-26T04:05:50.499Z,8.33
2018-12-26T04:08:20.918Z,7.43
2018-12-26T04:10:51.561Z,8.20
2018-12-26T04:13:22.006Z,9.70
2018-12-26T04:15:52.817Z,8.83
2018-12-26T04:18:23.303Z,9.20
2018-12-26T04:20:54.397Z,8.73
2018-12-26T04:23:24.885Z,8.17
2018-12-26T04:25:55.985Z,8.33
2018-12-26T04:28:27.038Z,8.33
2018-12-26T04:30:57.578Z,8.20
2018-12-26T04:33:28.406Z,8.73
2018-12-26T04:35:58.910Z,8.90
2018-12-26T04:38:29.817Z,8.47
2018-12-26T04:41:05.993Z,8.33
2018-12-26T04:43:36.539Z,7.67
2018-12-26T04:46:09.668Z,8.50
2018-12-26T04:48:45.337Z,8.20
2018-12-26T04:51:24.054Z,8.20
2018-12-26T04:53:56.530Z,7.83
2018-12-26T04:56:28.467Z,7.37
2018-12-26T04:59:02.555Z,8.73
2018-12-26T05:01:51.671Z,8.77
2018-12-26T05:04:41.210Z,7.70
2018-12-26T05:07:26.308Z,7.73
2018-12-26T05:09:57.718Z,7.43
2018-12-26T05:12:32.988Z,7.70
2018-12-26T05:15:05.894Z,7.03
2018-12-26T05:17:45.127Z,7.83
2018-12-26T05:20:16.628Z,8.93
2018-12-26T05:22:55.402Z,7.57
2018-12-26T05:25:25.881Z,7.00
2018-12-26T05:27:56.755Z,8.60
2018-12-26T05:30:27.329Z,7.00
2018-12-26T05:32:57.777Z,8.37
2018-12-26T05:35:28.930Z,6.57
2018-12-26T05:37:59.878Z,6.50
2018-12-26T05:40:30.589Z,6.60
2018-12-26T05:43:01.001Z,6.93
2018-12-26T05:45:31.550Z,6.70
2018-12-26T05:48:02.034Z,6.60
2018-12-26T05:50:35.119Z,6.90
2018-12-26T05:53:07.480Z,6.10
2018-12-26T05:55:40.113Z,6.30
2018-12-26T05:58:13.065Z,6.93
2018-12-26T06:00:45.946Z,6.77
2018-12-26T06:03:20.039Z,6.03
2018-12-26T06:05:52.626Z,7.00
2018-12-26T06:08:27.011Z,6.07
2018-12-26T06:10:57.919Z,6.60
2018-12-26T06:13:29.174Z,5.63
2018-12-26T06:16:02.112Z,5.43
2018-12-26T06:18:34.136Z,6.63
2018-12-26T06:21:05.927Z,6.40
2018-12-26T06:23:37.326Z,5.80
2018-12-26T06:26:08.137Z,5.90
2018-12-26T06:28:42.531Z,6.10
2018-12-26T06:31:15.807Z,6.10
2018-12-26T06:33:50.823Z,5.70
2018-12-26T06:36:23.879Z,6.23
2018-12-26T06:38:56.996Z,6.50
2018-12-26T06:41:30.401Z,6.40
2018-12-26T06:44:03.278Z,6.40
2018-12-26T06:46:37.083Z,6.60
2018-12-26T06:49:26.152Z,6.57
2018-12-26T06:52:01.196Z,7.07
2018-12-26T06:54:34.478Z,7.13
2018-12-26T06:57:05.083Z,6.73
2018-12-26T06:59:41.114Z,6.57
2018-12-26T07:02:13.235Z,6.43
2018-12-26T07:04:46.350Z,6.40
2018-12-26T07:07:19.308Z,6.40
2018-12-26T07:09:51.468Z,6.80
2018-12-26T07:12:23.888Z,6.90
2018-12-26T07:14:54.349Z,5.73
2018-12-26T07:17:25.196Z,6.70
2018-12-26T07:19:55.908Z,6.50
2018-12-26T07:22:32.962Z,6.47
2018-12-26T07:25:03.519Z,6.87
2018-12-26T07:27:34.889Z,7.00
2018-12-26T07:30:08.163Z,6.20
2018-12-26T07:32:51.409Z,6.07
2018-12-26T07:35:25.337Z,6.00
2018-12-26T07:38:00.894Z,5.87
2018-12-26T07:40:31.504Z,6.37
2018-12-26T07:43:04.599Z,6.67
2018-12-26T07:45:45.879Z,5.37
2018-12-26T07:48:16.336Z,7.10
2018-12-26T07:50:49.104Z,6.13
2018-12-26T07:53:21.151Z,5.60
2018-12-26T07:55:52.306Z,6.10
2018-12-26T07:58:25.778Z,5.27
2018-12-26T08:01:15.025Z,6.10
2018-12-26T08:04:04.219Z,5.47
2018-12-26T08:06:44.057Z,5.50
2018-12-26T08:09:16.666Z,5.90
2018-12-26T08:12:01.959Z,5.77
2018-12-26T08:14:34.588Z,7.10
2018-12-26T08:17:06.390Z,6.53
2018-12-26T08:19:47.554Z,6.20
2018-12-26T08:22:19.742Z,6.20
2018-12-26T08:24:50.973Z,5.87
2018-12-26T08:27:23.751Z,5.87
2018-12-26T08:29:58.270Z,6.20
2018-12-26T08:32:30.728Z,5.80
2018-12-26T08:35:01.637Z,6.53
2018-12-26T08:37:38.816Z,6.10
2018-12-26T08:40:12.369Z,5.80
2018-12-26T08:42:44.847Z,5.83
2018-12-26T08:45:18.496Z,6.30
2018-12-26T08:47:49.942Z,7.47
2018-12-26T08:50:21.167Z,6.63
2018-12-26T08:52:51.775Z,5.80
2018-12-26T08:55:22.578Z,6.53
2018-12-26T08:57:53.915Z,5.10
2018-12-26T09:00:24.526Z,5.93
2018-12-26T09:02:58.978Z,5.20
2018-12-26T09:05:34.592Z,6.37
2018-12-26T09:08:10.624Z,5.77
2018-12-26T09:10:45.071Z,6.10
2018-12-26T09:13:33.550Z,5.83
2018-12-26T09:16:06.275Z,5.40
2018-12-26T09:18:52.985Z,5.77
2018-12-26T09:21:23.503Z,5.50
2018-12-26T09:23:58.055Z,6.00
2018-12-26T09:26:33.673Z,5.73
2018-12-26T09:29:08.361Z,6.13
2018-12-26T09:31:46.487Z,6.07
2018-12-26T09:34:17.440Z,5.53
2018-12-26T09:36:55.103Z,6.20
2018-12-26T09:39:29.762Z,6.60
2018-12-26T09:42:16.439Z,6.00
2018-12-26T09:44:54.431Z,5.70
2018-12-26T09:47:21.255Z,6.43
2018-12-26T09:49:53.112Z,6.43
2018-12-26T09:52:23.636Z,5.67
2018-12-26T09:55:03.115Z,5.60
2018-12-26T09:57:36.275Z,6.23
2018-12-26T10:00:09.583Z,5.40
2018-12-26T10:02:42.164Z,6.13
2018-12-26T10:05:16.982Z,6.50
2018-12-26T10:07:47.974Z,5.93
2018-12-26T10:10:21.061Z,6.47
2018-12-26T10:12:53.916Z,6.30
2018-12-26T10:15:29.750Z,6.00
2018-12-26T10:18:04.416Z,6.57
2018-12-26T10:20:37.106Z,6.73
2018-12-26T10:23:11.565Z,5.80
2018-12-26T10:25:45.942Z,6.60
2018-12-26T10:28:17.300Z,6.60
2018-12-26T10:30:47.976Z,7.00
2018-12-26T10:33:18.714Z,7.23
2018-12-26T10:35:49.209Z,6.83
2018-12-26T10:38:19.867Z,6.80
2018-12-26T10:40:50.808Z,7.40
2018-12-26T10:43:34.211Z,6.63
2018-12-26T10:46:07.681Z,7.83
2018-12-26T10:48:38.310Z,8.57
2018-12-26T10:51:08.886Z,6.60
2018-12-26T10:53:42.071Z,6.10
2018-12-26T10:56:13.353Z,7.17
2018-12-26T10:58:53.748Z,6.40
2018-12-26T11:01:25.557Z,6.93
2018-12-26T11:03:59.112Z,6.93
2018-12-26T11:06:32.195Z,5.67
2018-12-26T11:09:08.106Z,6.10
2018-12-26T11:11:40.544Z,6.73
2018-12-26T11:14:14.618Z,7.03
2018-12-26T11:16:52.320Z,6.00
2018-12-26T11:19:24.555Z,6.93
2018-12-26T11:21:59.985Z,6.23
2018-12-26T11:24:42.950Z,6.43
2018-12-26T11:27:17.258Z,5.70
2018-12-26T11:29:52.431Z,5.90
2018-12-26T11:32:27.364Z,5.83
2018-12-26T11:34:59.684Z,6.10
2018-12-26T11:37:32.614Z,6.30
2018-12-26T11:40:03.586Z,6.50
2018-12-26T11:42:35.643Z,6.10
2018-12-26T11:45:08.652Z,6.00
2018-12-26T11:47:39.154Z,6.60
2018-12-26T11:50:10.394Z,6.10
2018-12-26T11:52:43.330Z,5.80
2018-12-26T11:55:14.763Z,5.83
2018-12-26T11:57:48.374Z,5.63
2018-12-26T12:00:24.402Z,5.50
2018-12-26T12:02:59.073Z,6.60
2018-12-26T12:05:29.647Z,5.90
2018-12-26T12:08:00.342Z,7.30
2018-12-26T12:10:31.369Z,5.70
2018-12-26T12:13:02.866Z,6.63
2018-12-26T12:15:53.335Z,7.47
2018-12-26T12:18:26.390Z,7.40
2018-12-26T12:20:57.950Z,6.10
2018-12-26T12:23:31.990Z,6.27
2018-12-26T12:26:03.792Z,6.93
2018-12-26T12:28:35.732Z,6.63
2018-12-26T12:31:06.388Z,7.07
2018-12-26T12:33:41.089Z,6.20
2018-12-26T12:36:14.878Z,6.30
2018-12-26T12:38:48.316Z,7.03
2018-12-26T12:41:21.202Z,7.53
2018-12-26T12:43:52.533Z,7.20
2018-12-26T12:46:24.752Z,6.30
2018-12-26T12:48:55.272Z,7.23
2018-12-26T12:51:25.709Z,6.60
2018-12-26T12:53:56.389Z,7.50
2018-12-26T12:56:27.571Z,7.27
2018-12-26T12:59:00.062Z,6.97
2018-12-26T13:01:33.392Z,7.20
2018-12-26T13:04:10.543Z,7.50
2018-12-26T13:06:44.573Z,7.37
2018-12-26T13:09:15.959Z,7.37
2018-12-26T13:11:47.699Z,8.73
2018-12-26T13:14:20.936Z,8.40
2018-12-26T13:16:55.692Z,8.07
2018-12-26T13:19:31.167Z,7.80
2018-12-26T13:22:03.155Z,7.23
2018-12-26T13:24:39.646Z,7.47
2018-12-26T13:27:11.069Z,6.50
2018-12-26T13:29:42.959Z,7.20
2018-12-26T13:32:14.205Z,7.77
2018-12-26T13:34:46.940Z,7.90
2018-12-26T13:37:26.048Z,7.40
2018-12-26T13:40:10.163Z,7.20
2018-12-26T13:42:45.083Z,7.73
2018-12-26T13:45:47.194Z,7.43
2018-12-26T13:48:21.086Z,7.50
2018-12-26T13:50:56.248Z,7.70
2018-12-26T13:53:27.043Z,8.27
2018-12-26T13:55:58.930Z,7.23
2018-12-26T13:58:33.994Z,7.40
2018-12-26T14:01:06.958Z,8.33
2018-12-26T14:03:55.932Z,8.73
2018-12-26T14:06:27.812Z,8.57
2018-12-26T14:09:01.392Z,7.80
2018-12-26T14:11:32.141Z,7.70
2018-12-26T14:14:03.181Z,7.83
2018-12-26T14:16:45.635Z,8.67
2018-12-26T14:19:20.198Z,7.20
2018-12-26T14:21:58.223Z,7.70
2018-12-26T14:24:32.801Z,7.97
2018-12-26T14:27:17.775Z,7.40
2018-12-26T14:29:50.321Z,7.53
2018-12-26T14:32:23.579Z,8.50
2018-12-26T14:34:55.547Z,7.87
2018-12-26T14:37:29.826Z,8.63
2018-12-26T14:40:02.141Z,7.23
2018-12-26T14:42:38.548Z,7.20
2018-12-26T14:45:11.325Z,8.40
2018-12-26T14:47:47.104Z,8.40
2018-12-26T14:50:22.966Z,9.50
2018-12-26T14:53:00.270Z,8.67
2018-12-26T14:55:52.505Z,9.10
2018-12-26T14:58:33.549Z,9.40
2018-12-26T15:01:07.400Z,8.27
2018-12-26T15:03:38.907Z,8.50
2018-12-26T15:06:11.866Z,8.30
2018-12-26T15:08:45.965Z,9.40
2018-12-26T15:11:18.621Z,8.80
2018-12-26T15:13:49.711Z,11.47
2018-12-26T15:16:21.005Z,9.40
2018-12-26T15:19:20.746Z,10.63
2018-12-26T15:22:00.423Z,12.40
2018-12-26T15:24:32.943Z,10.70
2018-12-26T15:27:03.433Z,10.10
2018-12-26T15:29:38.674Z,9.33
2018-12-26T15:32:10.428Z,11.30
2018-12-26T15:34:41.168Z,12.33
2018-12-26T15:37:11.840Z,10.27
2018-12-26T15:39:42.619Z,10.50
2018-12-26T15:42:16.890Z,9.67
2018-12-26T15:44:49.603Z,10.10
2018-12-26T15:47:22.565Z,10.33
2018-12-26T15:49:53.623Z,9.33
2018-12-26T15:52:26.884Z,9.70
2018-12-26T15:54:58.364Z,10.17
2018-12-26T15:57:34.091Z,10.30
2018-12-26T16:00:08.980Z,10.00
2018-12-26T16:02:43.650Z,9.80
2018-12-26T16:05:16.572Z,9.40
2018-12-26T16:07:49.952Z,10.30
2018-12-26T16:10:20.510Z,9.17
2018-12-26T16:12:58.399Z,9.40
2018-12-26T16:15:31.573Z,10.97
2018-12-26T16:18:07.913Z,9.90
2018-12-26T16:20:38.961Z,10.53
2018-12-26T16:23:09.620Z,10.17
2018-12-26T16:25:40.437Z,12.07
2018-12-26T16:28:12.440Z,10.23
2018-12-26T16:30:47.860Z,24.10
2018-12-26T16:33:28.445Z,13.07
2018-12-26T16:35:59.695Z,9.23
2018-12-26T16:38:36.405Z,10.10
2018-12-26T16:41:09.423Z,10.00
2018-12-26T16:43:46.084Z,9.50
2018-12-26T16:46:20.942Z,10.43
2018-12-26T16:49:03.584Z,10.17
2018-12-26T16:51:37.958Z,12.47
2018-12-26T16:54:11.218Z,10.47
2018-12-26T16:56:43.883Z,10.03
2018-12-26T16:59:18.779Z,9.90
2018-12-26T17:01:50.820Z,10.23
2018-12-26T17:04:24.475Z,9.50
2018-12-26T17:07:13.709Z,10.53
2018-12-26T17:09:47.941Z,9.77
2018-12-26T17:12:21.901Z,10.17
2018-12-26T17:15:10.879Z,10.73
2018-12-26T17:17:46.251Z,10.30
2018-12-26T17:20:17.208Z,10.20
2018-12-26T17:22:51.817Z,10.30
2018-12-26T17:25:32.985Z,10.50
2018-12-26T17:28:07.230Z,9.87
2018-12-26T17:30:42.288Z,9.90
2018-12-26T17:33:14.227Z,11.23
2018-12-26T17:35:45.780Z,10.70
2018-12-26T17:38:22.148Z,11.03
2018-12-26T17:40:56.199Z,10.87
2018-12-26T17:43:31.390Z,11.27
2018-12-26T17:46:02.678Z,10.50
2018-12-26T17:48:33.237Z,10.70
2018-12-26T17:51:11.293Z,10.40
2018-12-26T17:54:37.595Z,10.80
2018-12-26T17:57:17.427Z,11.97
2018-12-26T18:00:28.187Z,11.30
2018-12-26T18:03:07.196Z,10.30
2018-12-26T18:05:37.839Z,12.50
2018-12-26T18:08:08.723Z,12.87
2018-12-26T18:10:43.645Z,13.30
2018-12-26T18:13:15.521Z,11.10
2018-12-26T18:15:48.387Z,10.67
2018-12-26T18:18:37.709Z,11.27
2018-12-26T18:21:10.710Z,10.30
2018-12-26T18:23:44.586Z,11.03
2018-12-26T18:26:18.377Z,10.70
2018-12-26T18:28:51.167Z,10.67
2018-12-26T18:31:26.040Z,10.20
2018-12-26T18:34:10.851Z,9.90
2018-12-26T18:36:46.020Z,10.40
2018-12-26T18:39:37.107Z,11.40
2018-12-26T18:42:17.485Z,10.10
2018-12-26T18:44:50.274Z,10.70
2018-12-26T18:47:24.065Z,11.27
2018-12-26T18:50:11.611Z,10.57
2018-12-26T18:52:45.455Z,10.73
2018-12-26T18:55:34.557Z,11.40
2018-12-26T18:58:08.281Z,10.63
2018-12-26T19:00:38.839Z,10.80
2018-12-26T19:03:11.160Z,11.77
2018-12-26T19:05:44.079Z,11.90
2018-12-26T19:08:20.159Z,11.00
2018-12-26T19:10:52.351Z,20.47
2018-12-26T19:13:23.747Z,11.90
2018-12-26T19:15:54.467Z,12.40
2018-12-26T19:18:26.380Z,12.27
2018-12-26T19:21:00.203Z,10.90
2018-12-26T19:23:33.552Z,11.10
2018-12-26T19:26:06.694Z,10.67
2018-12-26T19:28:38.285Z,10.53
2018-12-26T19:31:10.922Z,11.03
2018-12-26T19:33:49.140Z,11.77
2018-12-26T19:36:39.639Z,11.37
2018-12-26T19:39:11.400Z,11.40
2018-12-26T19:41:44.231Z,11.10
2018-12-26T19:44:19.599Z,11.50
2018-12-26T19:46:54.411Z,12.40
2018-12-26T19:49:27.645Z,12.00
2018-12-26T19:51:59.917Z,11.60
2018-12-26T19:54:36.793Z,12.20
2018-12-26T19:57:09.496Z,11.00
2018-12-26T19:59:55.049Z,10.87
2018-12-26T20:02:28.780Z,12.47
2018-12-26T20:05:00.298Z,11.77
2018-12-26T20:07:33.551Z,11.70
2018-12-26T20:10:22.698Z,11.10
2018-12-26T20:13:12.867Z,11.80
2018-12-26T20:15:45.236Z,11.30
2018-12-26T20:18:19.627Z,11.93
2018-12-26T20:20:56.637Z,12.40
2018-12-26T20:23:32.521Z,12.87
2018-12-26T20:26:06.592Z,12.50
2018-12-26T20:28:40.934Z,13.50
2018-12-26T20:31:11.527Z,12.33
2018-12-26T20:33:47.549Z,13.03
2018-12-26T20:36:18.406Z,11.73
2018-12-26T20:38:52.729Z,11.53
2018-12-26T20:41:25.749Z,12.60
2018-12-26T20:43:59.904Z,13.63
2018-12-26T20:46:36.065Z,13.13
2018-12-26T20:49:06.934Z,12.40
2018-12-26T20:51:39.969Z,13.57
2018-12-26T20:54:10.931Z,13.00
2018-12-26T20:56:48.941Z,13.97
2018-12-26T20:59:21.330Z,12.17
2018-12-26T21:02:05.474Z,11.90
2018-12-26T21:04:31.901Z,13.10
2018-12-26T21:07:39.584Z,12.67
2018-12-26T21:10:20.855Z,13.00
2018-12-26T21:14:14.005Z,12.40
2018-12-26T21:17:58.874Z,15.00
2018-12-26T21:20:56.390Z,13.27
2018-12-26T21:23:30.306Z,11.53
2018-12-26T21:26:04.884Z,12.90
2018-12-26T21:28:54.361Z,13.50
2018-12-26T21:31:25.450Z,12.83
2018-12-26T21:33:56.135Z,12.70
2018-12-26T21:36:27.201Z,12.90
2018-12-26T21:39:00.163Z,12.60
2018-12-26T21:41:32.335Z,14.10
2018-12-26T21:44:04.962Z,13.50
2018-12-26T21:46:35.579Z,12.60
2018-12-26T21:49:06.881Z,12.10
2018-12-26T21:51:39.396Z,14.30
2018-12-26T21:54:11.514Z,13.03
2018-12-26T21:56:50.697Z,13.30
2018-12-26T21:59:24.054Z,13.47
2018-12-26T22:01:55.251Z,11.10
2018-12-26T22:04:25.867Z,13.07
2018-12-26T22:06:56.904Z,14.60
2018-12-26T22:09:27.702Z,13.70
2018-12-26T22:12:06.820Z,13.30
2018-12-26T22:14:45.942Z,13.40
2018-12-26T22:17:18.664Z,13.13
2018-12-26T22:19:59.810Z,13.90
2018-12-26T22:22:30.475Z,13.97
2018-12-26T22:25:01.004Z,13.83
2018-12-26T22:27:31.645Z,13.27
2018-12-26T22:30:03.083Z,13.03
2018-12-26T22:32:37.693Z,12.77
2018-12-26T22:35:11.304Z,14.10
2018-12-26T22:37:49.029Z,13.07
2018-12-26T22:40:19.517Z,14.40
2018-12-26T22:42:50.299Z,13.23
2018-12-26T22:45:21.206Z,13.50
2018-12-26T22:47:52.811Z,13.03
2018-12-26T22:50:29.454Z,13.80
2018-12-26T22:53:03.427Z,18.50
2018-12-26T22:55:36.742Z,13.47
2018-12-26T22:58:08.631Z,14.03
2018-12-26T23:00:44.062Z,14.30
2018-12-26T23:03:17.499Z,13.83
2018-12-26T23:05:51.255Z,14.17
2018-12-26T23:08:24.594Z,14.53
2018-12-26T23:10:56.467Z,14.73
2018-12-26T23:13:29.544Z,13.90
2018-12-26T23:16:02.660Z,14.70
2018-12-26T23:18:35.603Z,15.80
2018-12-26T23:21:08.579Z,13.70
2018-12-26T23:23:46.173Z,13.80
2018-12-26T23:26:17.730Z,13.93
2018-12-26T23:28:48.246Z,13.83
2018-12-26T23:31:20.623Z,15.80
2018-12-26T23:33:53.839Z,13.47
2018-12-26T23:36:27.361Z,12.83
2018-12-26T23:39:01.435Z,13.10
2018-12-26T23:41:32.692Z,12.40
2018-12-26T23:44:03.787Z,12.40
2018-12-26T23:46:37.201Z,11.73
2018-12-26T23:49:11.225Z,12.53
2018-12-26T23:51:48.447Z,12.70
2018-12-26T23:54:30.964Z,14.30
2018-12-26T23:57:04.893Z,12.90
2018-12-26T23:59:41.680Z,12.57
